createdAt,value
2022-10-06T00:04:11.234Z,69.98
2022-10-06T00:09:16.098Z,70.10
2022-10-06T00:14:17.967Z,70.16
2022-10-06T00:19:19.876Z,69.91
2022-10-06T00:24:21.836Z,70.13
2022-10-06T00:29:24.001Z,70.27
2022-10-06T00:34:28.687Z,70.26
2022-10-06T00:39:31.095Z,69.91
2022-10-06T00:44:33.403Z,70.29
2022-10-06T00:49:44.350Z,70.46
2022-10-06T00:54:50.743Z,70.53
2022-10-06T00:59:55.407Z,70.65
2022-10-06T01:05:33.185Z,70.60
2022-10-06T01:10:38.050Z,70.78
2022-10-06T01:16:07.295Z,70.92
2022-10-06T01:21:16.225Z,70.98
2022-10-06T01:26:21.109Z,70.43
2022-10-06T01:31:23.542Z,70.39
2022-10-06T01:36:25.953Z,70.45
2022-10-06T01:41:28.023Z,70.37
2022-10-06T01:46:31.002Z,70.76
2022-10-06T01:51:33.918Z,70.65
2022-10-06T01:56:35.874Z,70.83
2022-10-06T02:01:38.029Z,70.95
2022-10-06T02:06:40.415Z,71.05
2022-10-06T02:11:42.923Z,71.05
2022-10-06T02:16:45.565Z,71.14
2022-10-06T02:21:47.538Z,71.08
2022-10-06T02:26:49.843Z,71.11
2022-10-06T02:31:52.280Z,71.04
2022-10-06T02:36:55.984Z,71.04
2022-10-06T02:41:59.222Z,71.00
2022-10-06T02:47:01.184Z,70.97
2022-10-06T02:52:03.097Z,70.97
2022-10-06T02:57:05.118Z,70.98
2022-10-06T03:07:42.123Z,71.08
2022-10-06T03:12:45.001Z,70.99
2022-10-06T03:17:50.383Z,70.89
2022-10-06T03:23:02.109Z,70.79
2022-10-06T03:28:05.889Z,70.90
2022-10-06T03:33:09.368Z,70.80
2022-10-06T03:38:11.450Z,70.65
2022-10-06T03:43:13.515Z,70.38
2022-10-06T03:48:15.371Z,70.63
2022-10-06T03:53:17.339Z,70.75
2022-10-06T03:58:19.663Z,70.75
2022-10-06T04:03:24.141Z,70.67
2022-10-06T04:08:27.372Z,70.54
2022-10-06T04:13:33.635Z,70.56
2022-10-06T04:33:22.398Z,70.52
2022-10-06T04:38:24.866Z,70.45
2022-10-06T04:43:39.805Z,70.47
2022-10-06T04:48:42.242Z,70.68
2022-10-06T04:53:50.508Z,70.33
2022-10-06T04:58:56.239Z,70.36
2022-10-06T05:04:01.372Z,70.21
2022-10-06T05:09:16.011Z,69.99
2022-10-06T05:14:28.555Z,70.23
2022-10-06T05:19:42.238Z,70.32
2022-10-06T05:24:49.185Z,70.19
2022-10-06T05:29:51.270Z,69.83
2022-10-06T05:34:58.295Z,70.10
2022-10-06T05:40:08.915Z,70.52
2022-10-06T05:45:15.125Z,70.42
2022-10-06T05:50:21.679Z,70.68
2022-10-06T05:55:24.067Z,70.52
2022-10-06T06:00:27.399Z,70.24
2022-10-06T06:05:32.289Z,70.78
2022-10-06T06:10:40.922Z,70.58
2022-10-06T06:16:01.106Z,70.32
2022-10-06T06:21:07.274Z,70.17
2022-10-06T06:26:12.718Z,70.38
2022-10-06T06:31:23.055Z,70.14
2022-10-06T06:36:29.939Z,70.03
2022-10-06T06:41:37.998Z,70.03
2022-10-06T06:46:49.254Z,70.00
2022-10-06T06:51:54.902Z,69.66
2022-10-06T06:56:59.336Z,69.58
2022-10-06T07:02:03.506Z,69.50
2022-10-06T07:07:10.737Z,69.32
2022-10-06T07:12:12.849Z,69.21
2022-10-06T07:32:22.608Z,68.52
2022-10-06T07:37:25.552Z,68.52
2022-10-06T07:42:28.097Z,68.37
2022-10-06T07:47:30.315Z,68.51
2022-10-06T07:52:39.425Z,68.01
2022-10-06T07:57:46.130Z,67.92
2022-10-06T08:02:48.922Z,67.72
2022-10-06T08:07:53.386Z,67.46
2022-10-06T08:12:55.353Z,67.26
2022-10-06T08:18:00.407Z,66.60
2022-10-06T08:23:02.343Z,66.61
2022-10-06T08:28:06.984Z,66.68
2022-10-06T08:33:12.730Z,66.52
2022-10-06T08:38:14.792Z,66.51
2022-10-06T08:43:25.048Z,68.69
2022-10-06T08:48:28.858Z,69.11
2022-10-06T08:54:12.182Z,69.27
2022-10-06T08:59:21.164Z,67.61
2022-10-06T09:04:35.757Z,65.89
2022-10-06T09:10:06.108Z,65.50
2022-10-06T09:15:44.987Z,64.62
2022-10-06T09:20:57.560Z,63.71
2022-10-06T09:26:19.318Z,61.80
2022-10-06T09:31:40.963Z,61.37
2022-10-06T09:37:07.778Z,59.26
2022-10-06T09:48:32.028Z,59.67
2022-10-06T09:53:38.874Z,58.72
2022-10-06T09:58:59.986Z,58.02
2022-10-06T10:04:21.268Z,57.81
2022-10-06T10:09:50.044Z,57.67
2022-10-06T10:14:55.473Z,57.44
2022-10-06T10:20:02.843Z,56.31
2022-10-06T10:25:41.797Z,55.04
2022-10-06T10:43:04.934Z,56.04
2022-10-06T10:48:15.220Z,55.66
2022-10-06T10:53:50.395Z,55.98
2022-10-06T10:59:36.480Z,56.00
2022-10-06T11:04:43.552Z,56.27
2022-10-06T11:10:13.719Z,56.74
2022-10-06T11:15:33.597Z,56.76
2022-10-06T11:20:51.218Z,55.96
2022-10-06T11:26:02.356Z,55.66
2022-10-06T11:31:04.517Z,54.91
2022-10-06T11:36:21.857Z,55.77
2022-10-06T11:41:30.387Z,55.06
2022-10-06T11:46:49.266Z,55.82
2022-10-06T11:51:53.669Z,55.56
2022-10-06T11:56:59.372Z,55.50
2022-10-06T12:02:02.203Z,55.23
2022-10-06T12:07:05.241Z,54.51
2022-10-06T12:12:18.898Z,53.74
2022-10-06T12:17:28.399Z,53.88
2022-10-06T12:22:49.888Z,53.71
2022-10-06T12:28:29.588Z,54.84
2022-10-06T12:33:42.912Z,54.46
2022-10-06T12:39:21.551Z,54.32
2022-10-06T12:44:26.181Z,54.49
2022-10-06T12:49:56.753Z,53.91
2022-10-06T12:55:06.124Z,54.40
2022-10-06T13:00:31.514Z,53.30
2022-10-06T13:11:29.946Z,54.46
2022-10-06T13:16:36.620Z,53.50
2022-10-06T13:21:38.689Z,53.28
2022-10-06T13:26:41.535Z,53.61
2022-10-06T13:31:53.147Z,52.97
2022-10-06T13:36:56.875Z,53.22
2022-10-06T13:42:03.852Z,53.42
2022-10-06T13:47:15.631Z,53.36
2022-10-06T13:52:38.301Z,52.97
2022-10-06T13:57:53.833Z,53.18
2022-10-06T14:03:20.082Z,52.58
2022-10-06T14:08:27.895Z,52.43
2022-10-06T14:13:49.951Z,52.90
2022-10-06T14:19:05.323Z,53.80
2022-10-06T14:24:18.432Z,53.80
2022-10-06T14:29:29.034Z,55.16
2022-10-06T14:34:31.442Z,54.94
2022-10-06T14:39:33.404Z,55.35
2022-10-06T14:44:35.960Z,56.20
2022-10-06T14:49:42.309Z,56.35
2022-10-06T14:54:47.393Z,56.28
2022-10-06T14:59:52.368Z,55.33
2022-10-06T15:04:54.408Z,56.32
2022-10-06T15:09:57.463Z,55.98
2022-10-06T15:14:59.629Z,55.88
2022-10-06T15:20:05.185Z,55.86
2022-10-06T15:25:35.212Z,56.06
2022-10-06T15:30:40.059Z,55.90
2022-10-06T15:35:47.502Z,56.32
2022-10-06T15:40:49.409Z,55.75
2022-10-06T15:45:55.423Z,55.81
2022-10-06T15:50:58.180Z,56.39
2022-10-06T15:56:00.580Z,57.14
2022-10-06T16:01:03.785Z,57.52
2022-10-06T16:06:09.343Z,57.77
2022-10-06T16:11:11.431Z,58.72
2022-10-06T16:16:13.439Z,59.12
2022-10-06T16:21:15.441Z,59.56
2022-10-06T16:26:18.963Z,59.73
2022-10-06T16:31:30.033Z,59.89
2022-10-06T16:36:34.447Z,58.81
2022-10-06T16:42:03.816Z,59.50
2022-10-06T16:47:18.739Z,58.66
2022-10-06T16:52:20.668Z,59.59
2022-10-06T16:57:22.621Z,60.04
2022-10-06T17:02:24.656Z,60.25
2022-10-06T17:07:26.875Z,60.47
2022-10-06T17:12:31.557Z,60.74
2022-10-06T17:23:00.313Z,60.91
2022-10-06T17:28:07.186Z,61.11
2022-10-06T17:33:09.592Z,61.18
2022-10-06T17:38:15.971Z,61.79
2022-10-06T17:43:20.548Z,61.80
2022-10-06T17:48:27.104Z,62.16
2022-10-06T17:53:32.945Z,62.00
2022-10-06T17:59:04.807Z,62.93
2022-10-06T18:04:16.251Z,62.84
2022-10-06T18:09:22.160Z,62.94
2022-10-06T18:14:31.027Z,62.66
2022-10-06T18:19:41.982Z,62.51
2022-10-06T18:24:44.248Z,62.32
2022-10-06T18:29:51.422Z,62.06
2022-10-06T18:40:17.354Z,62.14
2022-10-06T18:45:57.902Z,62.18
2022-10-06T18:51:03.722Z,62.08
2022-10-06T18:56:13.296Z,62.74
2022-10-06T19:01:17.496Z,62.64
2022-10-06T19:06:25.015Z,62.91
2022-10-06T19:17:14.788Z,63.03
2022-10-06T19:22:20.026Z,63.39
2022-10-06T19:27:25.665Z,63.18
2022-10-06T19:32:32.276Z,63.03
2022-10-06T19:37:34.574Z,63.15
2022-10-06T19:42:48.846Z,63.04
2022-10-06T19:47:51.469Z,63.23
2022-10-06T19:52:53.416Z,63.42
2022-10-06T19:57:55.466Z,63.45
2022-10-06T20:02:57.535Z,63.85
2022-10-06T20:08:00.195Z,63.94
2022-10-06T20:13:02.258Z,64.25
2022-10-06T20:18:04.529Z,64.45
2022-10-06T20:23:07.447Z,64.89
2022-10-06T20:28:10.653Z,64.85
2022-10-06T20:33:13.542Z,65.05
2022-10-06T20:38:15.499Z,64.95
2022-10-06T20:43:17.533Z,64.89
2022-10-06T20:48:20.034Z,65.26
2022-10-06T20:53:31.551Z,65.51
2022-10-06T20:58:34.312Z,66.57
2022-10-06T21:03:51.211Z,65.56
2022-10-06T21:08:55.116Z,65.19
2022-10-06T21:13:57.740Z,65.08
2022-10-06T21:19:02.580Z,65.54
2022-10-06T21:24:05.216Z,65.15
2022-10-06T21:29:07.354Z,65.03
2022-10-06T21:34:10.504Z,65.03
2022-10-06T21:39:13.237Z,65.41
2022-10-06T21:44:17.407Z,65.62
2022-10-06T21:49:21.421Z,65.63
2022-10-06T21:54:29.888Z,65.60
2022-10-06T21:59:44.657Z,65.80
2022-10-06T22:04:46.678Z,65.85
2022-10-06T22:09:48.561Z,65.97
2022-10-06T22:14:50.570Z,66.04
2022-10-06T22:19:55.528Z,66.19
2022-10-06T22:24:59.302Z,66.35
2022-10-06T22:30:01.292Z,66.52
2022-10-06T22:35:03.814Z,66.31
2022-10-06T22:40:07.797Z,66.34
2022-10-06T22:45:10.562Z,66.09
2022-10-06T22:50:12.669Z,65.48
2022-10-06T22:55:14.637Z,64.43
2022-10-06T23:00:19.763Z,63.72
2022-10-06T23:05:21.684Z,63.48
2022-10-06T23:10:25.123Z,63.27
2022-10-06T23:15:27.624Z,62.98
2022-10-06T23:20:29.633Z,62.84
2022-10-06T23:25:33.708Z,62.54
2022-10-06T23:30:36.506Z,62.53
2022-10-06T23:35:40.719Z,62.38
2022-10-06T23:40:42.711Z,62.35
2022-10-06T23:45:57.279Z,62.52
2022-10-06T23:51:01.702Z,62.34
2022-10-06T23:56:05.444Z,62.47
